sensor_id;sensor_type;location;lat;lon;timestamp;temperature;humidity
18384;DHT22;9318;48.644;9.456;2023-12-04T00:00:02;-4.30;99.90
18384;DHT22;9318;48.644;9.456;2023-12-04T00:02:30;-4.20;99.90
18384;DHT22;9318;48.644;9.456;2023-12-04T00:04:56;-4.20;99.90
18384;DHT22;9318;48.644;9.456;2023-12-04T00:07:23;-4.20;99.90
18384;DHT22;9318;48.644;9.456;2023-12-04T00:09:50;-4.20;99.90
18384;DHT22;9318;48.644;9.456;2023-12-04T00:12:17;-4.30;99.90
18384;DHT22;9318;48.644;9.456;2023-12-04T00:14:43;-4.30;99.90
18384;DHT22;9318;48.644;9.456;2023-12-04T00:17:11;-4.30;99.90
18384;DHT22;9318;48.644;9.456;2023-12-04T00:19:38;-4.30;99.90
18384;DHT22;9318;48.644;9.456;2023-12-04T00:22:05;-4.30;99.90
18384;DHT22;9318;48.644;9.456;2023-12-04T00:24:32;-4.30;99.90
18384;DHT22;9318;48.644;9.456;2023-12-04T00:26:59;-4.30;99.90
18384;DHT22;9318;48.644;9.456;2023-12-04T00:29:25;-4.20;99.90
18384;DHT22;9318;48.644;9.456;2023-12-04T00:31:52;-4.30;99.90
18384;DHT22;9318;48.644;9.456;2023-12-04T00:34:20;-4.30;99.90
18384;DHT22;9318;48.644;9.456;2023-12-04T00:36:47;-4.30;99.90
18384;DHT22;9318;48.644;9.456;2023-12-04T00:39:14;-4.40;99.90
18384;DHT22;9318;48.644;9.456;2023-12-04T00:41:40;-4.40;99.90
18384;DHT22;9318;48.644;9.456;2023-12-04T00:44:08;-4.50;99.90
18384;DHT22;9318;48.644;9.456;2023-12-04T00:46:35;-4.50;99.90
18384;DHT22;9318;48.644;9.456;2023-12-04T00:49:01;-4.60;99.90
18384;DHT22;9318;48.644;9.456;2023-12-04T00:51:37;-4.60;99.90
18384;DHT22;9318;48.644;9.456;2023-12-04T00:54:04;-4.50;99.90
18384;DHT22;9318;48.644;9.456;2023-12-04T00:56:30;-4.50;99.90
18384;DHT22;9318;48.644;9.456;2023-12-04T00:58:57;-4.50;99.90
18384;DHT22;9318;48.644;9.456;2023-12-04T01:01:24;-4.50;99.90
18384;DHT22;9318;48.644;9.456;2023-12-04T01:03:50;-4.50;99.90
18384;DHT22;9318;48.644;9.456;2023-12-04T01:06:21;-4.50;99.90
18384;DHT22;9318;48.644;9.456;2023-12-04T01:08:50;-4.50;99.90
18384;DHT22;9318;48.644;9.456;2023-12-04T01:11:17;-4.50;99.90
18384;DHT22;9318;48.644;9.456;2023-12-04T01:13:44;-4.50;99.90
18384;DHT22;9318;48.644;9.456;2023-12-04T01:16:11;-4.50;99.90
18384;DHT22;9318;48.644;9.456;2023-12-04T01:18:38;-4.50;99.90
18384;DHT22;9318;48.644;9.456;2023-12-04T01:21:05;-4.50;99.90
18384;DHT22;9318;48.644;9.456;2023-12-04T01:23:34;-4.40;99.90
18384;DHT22;9318;48.644;9.456;2023-12-04T01:26:02;-4.30;99.90
18384;DHT22;9318;48.644;9.456;2023-12-04T01:28:29;-4.30;99.90
18384;DHT22;9318;48.644;9.456;2023-12-04T01:30:56;-4.30;99.90
18384;DHT22;9318;48.644;9.456;2023-12-04T01:33:22;-4.20;99.90
18384;DHT22;9318;48.644;9.456;2023-12-04T01:35:49;-4.20;99.90
18384;DHT22;9318;48.644;9.456;2023-12-04T01:38:16;-4.30;99.90
18384;DHT22;9318;48.644;9.456;2023-12-04T01:40:43;-4.40;99.90
18384;DHT22;9318;48.644;9.456;2023-12-04T01:43:11;-4.50;99.90
18384;DHT22;9318;48.644;9.456;2023-12-04T01:45:38;-4.50;99.90
18384;DHT22;9318;48.644;9.456;2023-12-04T01:48:06;-4.50;99.90
18384;DHT22;9318;48.644;9.456;2023-12-04T01:50:34;-4.50;99.90
18384;DHT22;9318;48.644;9.456;2023-12-04T01:53:01;-4.50;99.90
18384;DHT22;9318;48.644;9.456;2023-12-04T01:55:29;-4.50;99.90
18384;DHT22;9318;48.644;9.456;2023-12-04T01:57:56;-4.50;99.90
18384;DHT22;9318;48.644;9.456;2023-12-04T02:00:26;-4.50;99.90
18384;DHT22;9318;48.644;9.456;2023-12-04T02:02:53;-4.50;99.90
18384;DHT22;9318;48.644;9.456;2023-12-04T02:05:20;-4.50;99.90
18384;DHT22;9318;48.644;9.456;2023-12-04T02:07:47;-4.50;99.90
18384;DHT22;9318;48.644;9.456;2023-12-04T02:10:14;-4.40;99.90
18384;DHT22;9318;48.644;9.456;2023-12-04T02:12:41;-4.30;99.90
18384;DHT22;9318;48.644;9.456;2023-12-04T02:15:08;-4.30;99.90
18384;DHT22;9318;48.644;9.456;2023-12-04T02:17:37;-4.30;99.90
18384;DHT22;9318;48.644;9.456;2023-12-04T02:20:05;-4.40;99.90
18384;DHT22;9318;48.644;9.456;2023-12-04T02:22:32;-4.50;99.90
18384;DHT22;9318;48.644;9.456;2023-12-04T02:25:00;-4.50;99.90
18384;DHT22;9318;48.644;9.456;2023-12-04T02:27:29;-4.50;99.90
18384;DHT22;9318;48.644;9.456;2023-12-04T02:30:00;-4.50;99.90
18384;DHT22;9318;48.644;9.456;2023-12-04T02:32:29;-4.40;99.90
18384;DHT22;9318;48.644;9.456;2023-12-04T02:34:57;-4.40;99.90
18384;DHT22;9318;48.644;9.456;2023-12-04T02:37:25;-4.30;99.90
18384;DHT22;9318;48.644;9.456;2023-12-04T02:39:52;-4.30;99.90
18384;DHT22;9318;48.644;9.456;2023-12-04T02:42:22;-4.30;99.90
18384;DHT22;9318;48.644;9.456;2023-12-04T02:44:50;-4.20;99.90
18384;DHT22;9318;48.644;9.456;2023-12-04T02:47:17;-4.30;99.90
18384;DHT22;9318;48.644;9.456;2023-12-04T02:49:44;-4.30;99.90
18384;DHT22;9318;48.644;9.456;2023-12-04T02:52:11;-4.40;99.90
18384;DHT22;9318;48.644;9.456;2023-12-04T02:54:38;-4.40;99.90
18384;DHT22;9318;48.644;9.456;2023-12-04T02:57:05;-4.40;99.90
18384;DHT22;9318;48.644;9.456;2023-12-04T02:59:33;-4.50;99.90
18384;DHT22;9318;48.644;9.456;2023-12-04T03:01:59;-4.50;99.90
18384;DHT22;9318;48.644;9.456;2023-12-04T03:04:27;-4.50;99.90
18384;DHT22;9318;48.644;9.456;2023-12-04T03:06:54;-4.60;99.90
18384;DHT22;9318;48.644;9.456;2023-12-04T03:09:21;-4.60;99.90
18384;DHT22;9318;48.644;9.456;2023-12-04T03:11:47;-4.60;99.90
18384;DHT22;9318;48.644;9.456;2023-12-04T03:14:14;-4.50;99.90
18384;DHT22;9318;48.644;9.456;2023-12-04T03:16:42;-4.50;99.90
18384;DHT22;9318;48.644;9.456;2023-12-04T03:19:09;-4.40;99.90
18384;DHT22;9318;48.644;9.456;2023-12-04T03:21:36;-4.40;99.90
18384;DHT22;9318;48.644;9.456;2023-12-04T03:24:03;-4.40;99.90
18384;DHT22;9318;48.644;9.456;2023-12-04T03:26:30;-4.40;99.90
18384;DHT22;9318;48.644;9.456;2023-12-04T03:28:57;-4.40;99.90
18384;DHT22;9318;48.644;9.456;2023-12-04T03:31:24;-4.40;99.90
18384;DHT22;9318;48.644;9.456;2023-12-04T03:33:52;-4.40;99.90
18384;DHT22;9318;48.644;9.456;2023-12-04T03:36:19;-4.40;99.90
18384;DHT22;9318;48.644;9.456;2023-12-04T03:38:46;-4.50;99.90
18384;DHT22;9318;48.644;9.456;2023-12-04T03:41:16;-4.50;99.90
18384;DHT22;9318;48.644;9.456;2023-12-04T03:43:43;-4.40;99.90
18384;DHT22;9318;48.644;9.456;2023-12-04T03:46:10;-4.40;99.90
18384;DHT22;9318;48.644;9.456;2023-12-04T03:48:36;-4.40;99.90
18384;DHT22;9318;48.644;9.456;2023-12-04T03:51:05;-4.30;99.90
18384;DHT22;9318;48.644;9.456;2023-12-04T03:53:32;-4.30;99.90
18384;DHT22;9318;48.644;9.456;2023-12-04T03:55:59;-4.40;99.90
18384;DHT22;9318;48.644;9.456;2023-12-04T03:58:25;-4.40;99.90
18384;DHT22;9318;48.644;9.456;2023-12-04T04:00:52;-4.40;99.90
18384;DHT22;9318;48.644;9.456;2023-12-04T04:03:19;-4.40;99.90
18384;DHT22;9318;48.644;9.456;2023-12-04T04:05:46;-4.50;99.90
18384;DHT22;9318;48.644;9.456;2023-12-04T04:08:14;-4.50;99.90
18384;DHT22;9318;48.644;9.456;2023-12-04T04:10:40;-4.50;99.90
18384;DHT22;9318;48.644;9.456;2023-12-04T04:13:07;-4.50;99.90
18384;DHT22;9318;48.644;9.456;2023-12-04T04:15:34;-4.50;99.90
18384;DHT22;9318;48.644;9.456;2023-12-04T04:18:01;-4.50;99.90
18384;DHT22;9318;48.644;9.456;2023-12-04T04:20:28;-4.50;99.90
18384;DHT22;9318;48.644;9.456;2023-12-04T04:22:54;-4.40;99.90
18384;DHT22;9318;48.644;9.456;2023-12-04T04:25:23;-4.40;99.90
18384;DHT22;9318;48.644;9.456;2023-12-04T04:27:49;-4.40;99.90
18384;DHT22;9318;48.644;9.456;2023-12-04T04:30:16;-4.30;99.90
18384;DHT22;9318;48.644;9.456;2023-12-04T04:32:43;-4.30;99.90
18384;DHT22;9318;48.644;9.456;2023-12-04T04:35:10;-4.30;99.90
18384;DHT22;9318;48.644;9.456;2023-12-04T04:37:37;-4.20;99.90
18384;DHT22;9318;48.644;9.456;2023-12-04T04:40:05;-4.10;99.90
18384;DHT22;9318;48.644;9.456;2023-12-04T04:42:33;-4.10;99.90
18384;DHT22;9318;48.644;9.456;2023-12-04T04:45:00;-4.10;99.90
18384;DHT22;9318;48.644;9.456;2023-12-04T04:47:27;-4.10;99.90
18384;DHT22;9318;48.644;9.456;2023-12-04T04:49:53;-4.20;99.90
18384;DHT22;9318;48.644;9.456;2023-12-04T04:52:20;-4.10;99.90
18384;DHT22;9318;48.644;9.456;2023-12-04T04:54:47;-4.10;99.90
18384;DHT22;9318;48.644;9.456;2023-12-04T04:57:14;-4.10;99.90
18384;DHT22;9318;48.644;9.456;2023-12-04T04:59:42;-4.00;99.90
18384;DHT22;9318;48.644;9.456;2023-12-04T05:02:08;-4.00;99.90
18384;DHT22;9318;48.644;9.456;2023-12-04T05:04:35;-4.10;99.90
18384;DHT22;9318;48.644;9.456;2023-12-04T05:07:02;-4.00;99.90
18384;DHT22;9318;48.644;9.456;2023-12-04T05:09:29;-4.00;99.90
18384;DHT22;9318;48.644;9.456;2023-12-04T05:11:56;-4.00;99.90
18384;DHT22;9318;48.644;9.456;2023-12-04T05:14:22;-4.00;99.90
18384;DHT22;9318;48.644;9.456;2023-12-04T05:16:50;-4.00;99.90
18384;DHT22;9318;48.644;9.456;2023-12-04T05:19:17;-4.00;99.90
18384;DHT22;9318;48.644;9.456;2023-12-04T05:21:44;-4.00;99.90
18384;DHT22;9318;48.644;9.456;2023-12-04T05:24:11;-4.00;99.90
18384;DHT22;9318;48.644;9.456;2023-12-04T05:26:37;-4.00;99.90
18384;DHT22;9318;48.644;9.456;2023-12-04T05:29:04;-3.90;99.90
18384;DHT22;9318;48.644;9.456;2023-12-04T05:31:32;-3.90;99.90
18384;DHT22;9318;48.644;9.456;2023-12-04T05:34:00;-3.80;99.90
18384;DHT22;9318;48.644;9.456;2023-12-04T05:36:27;-3.70;99.90
18384;DHT22;9318;48.644;9.456;2023-12-04T05:38:54;-3.60;99.90
18384;DHT22;9318;48.644;9.456;2023-12-04T05:41:21;-3.60;99.90
18384;DHT22;9318;48.644;9.456;2023-12-04T05:43:47;-3.50;99.90
18384;DHT22;9318;48.644;9.456;2023-12-04T05:46:14;-3.50;99.90
18384;DHT22;9318;48.644;9.456;2023-12-04T05:48:41;-3.50;99.90
18384;DHT22;9318;48.644;9.456;2023-12-04T05:51:11;-3.50;99.90
18384;DHT22;9318;48.644;9.456;2023-12-04T05:53:38;-3.50;99.90
18384;DHT22;9318;48.644;9.456;2023-12-04T05:56:05;-3.50;99.90
18384;DHT22;9318;48.644;9.456;2023-12-04T05:58:34;-3.50;99.90
18384;DHT22;9318;48.644;9.456;2023-12-04T06:01:01;-3.50;99.90
18384;DHT22;9318;48.644;9.456;2023-12-04T06:03:28;-3.40;99.90
18384;DHT22;9318;48.644;9.456;2023-12-04T06:05:54;-3.40;99.90
18384;DHT22;9318;48.644;9.456;2023-12-04T06:08:23;-3.50;99.90
18384;DHT22;9318;48.644;9.456;2023-12-04T06:10:49;-3.50;99.90
18384;DHT22;9318;48.644;9.456;2023-12-04T06:13:16;-3.50;99.90
18384;DHT22;9318;48.644;9.456;2023-12-04T06:15:43;-3.50;99.90
18384;DHT22;9318;48.644;9.456;2023-12-04T06:18:10;-3.60;99.90
18384;DHT22;9318;48.644;9.456;2023-12-04T06:20:37;-3.50;99.90
18384;DHT22;9318;48.644;9.456;2023-12-04T06:23:04;-3.60;99.90
18384;DHT22;9318;48.644;9.456;2023-12-04T06:25:33;-3.50;99.90
18384;DHT22;9318;48.644;9.456;2023-12-04T06:28:00;-3.60;99.90
18384;DHT22;9318;48.644;9.456;2023-12-04T06:30:27;-3.60;99.90
18384;DHT22;9318;48.644;9.456;2023-12-04T06:32:54;-3.60;99.90
18384;DHT22;9318;48.644;9.456;2023-12-04T06:35:22;-3.60;99.90
18384;DHT22;9318;48.644;9.456;2023-12-04T06:37:49;-3.50;99.90
18384;DHT22;9318;48.644;9.456;2023-12-04T06:40:18;-3.50;99.90
18384;DHT22;9318;48.644;9.456;2023-12-04T06:42:47;-3.40;99.90
18384;DHT22;9318;48.644;9.456;2023-12-04T06:45:15;-3.30;99.90
18384;DHT22;9318;48.644;9.456;2023-12-04T06:47:43;-3.20;99.90
18384;DHT22;9318;48.644;9.456;2023-12-04T06:50:12;-3.20;99.90
18384;DHT22;9318;48.644;9.456;2023-12-04T06:52:39;-3.30;99.90
18384;DHT22;9318;48.644;9.456;2023-12-04T06:55:06;-3.30;99.90
18384;DHT22;9318;48.644;9.456;2023-12-04T06:57:33;-3.20;99.90
18384;DHT22;9318;48.644;9.456;2023-12-04T07:00:02;-3.20;99.90
18384;DHT22;9318;48.644;9.456;2023-12-04T07:02:29;-3.20;99.90
18384;DHT22;9318;48.644;9.456;2023-12-04T07:04:56;-3.20;99.90
18384;DHT22;9318;48.644;9.456;2023-12-04T07:07:23;-3.20;99.90
18384;DHT22;9318;48.644;9.456;2023-12-04T07:09:50;-3.20;99.90
18384;DHT22;9318;48.644;9.456;2023-12-04T07:12:17;-3.20;99.90
18384;DHT22;9318;48.644;9.456;2023-12-04T07:14:44;-3.20;99.90
18384;DHT22;9318;48.644;9.456;2023-12-04T07:17:12;-3.20;99.90
18384;DHT22;9318;48.644;9.456;2023-12-04T07:19:41;-3.20;99.90
18384;DHT22;9318;48.644;9.456;2023-12-04T07:22:08;-3.20;99.90
18384;DHT22;9318;48.644;9.456;2023-12-04T07:24:35;-3.10;99.90
18384;DHT22;9318;48.644;9.456;2023-12-04T07:27:02;-3.10;99.90
18384;DHT22;9318;48.644;9.456;2023-12-04T07:29:29;-3.00;99.90
18384;DHT22;9318;48.644;9.456;2023-12-04T07:31:55;-2.90;99.90
18384;DHT22;9318;48.644;9.456;2023-12-04T07:34:23;-2.90;99.90
18384;DHT22;9318;48.644;9.456;2023-12-04T07:36:50;-2.90;99.90
18384;DHT22;9318;48.644;9.456;2023-12-04T07:39:17;-2.80;99.90
18384;DHT22;9318;48.644;9.456;2023-12-04T07:41:44;-2.90;99.90
18384;DHT22;9318;48.644;9.456;2023-12-04T07:44:10;-2.90;99.90
18384;DHT22;9318;48.644;9.456;2023-12-04T07:46:37;-3.00;99.90
18384;DHT22;9318;48.644;9.456;2023-12-04T07:49:04;-3.00;99.90
18384;DHT22;9318;48.644;9.456;2023-12-04T07:51:32;-2.90;99.90
18384;DHT22;9318;48.644;9.456;2023-12-04T07:53:59;-3.00;99.90
18384;DHT22;9318;48.644;9.456;2023-12-04T07:56:26;-3.00;99.90
18384;DHT22;9318;48.644;9.456;2023-12-04T07:58:53;-3.00;99.90
18384;DHT22;9318;48.644;9.456;2023-12-04T08:01:20;-3.00;99.90
18384;DHT22;9318;48.644;9.456;2023-12-04T08:03:46;-2.90;99.90
18384;DHT22;9318;48.644;9.456;2023-12-04T08:06:13;-3.00;99.90
18384;DHT22;9318;48.644;9.456;2023-12-04T08:08:43;-2.90;99.90
18384;DHT22;9318;48.644;9.456;2023-12-04T08:11:10;-2.90;99.90
18384;DHT22;9318;48.644;9.456;2023-12-04T08:13:39;-2.80;99.90
18384;DHT22;9318;48.644;9.456;2023-12-04T08:16:13;-2.80;99.90
18384;DHT22;9318;48.644;9.456;2023-12-04T08:18:40;-2.70;99.90
18384;DHT22;9318;48.644;9.456;2023-12-04T08:21:07;-2.70;99.90
18384;DHT22;9318;48.644;9.456;2023-12-04T08:23:33;-2.70;99.90
18384;DHT22;9318;48.644;9.456;2023-12-04T08:26:01;-2.60;99.90
18384;DHT22;9318;48.644;9.456;2023-12-04T08:28:28;-2.50;99.90
18384;DHT22;9318;48.644;9.456;2023-12-04T08:30:55;-2.40;99.90
18384;DHT22;9318;48.644;9.456;2023-12-04T08:33:21;-2.40;99.90
18384;DHT22;9318;48.644;9.456;2023-12-04T08:35:48;-2.30;99.90
18384;DHT22;9318;48.644;9.456;2023-12-04T08:38:16;-2.40;99.90
18384;DHT22;9318;48.644;9.456;2023-12-04T08:40:43;-2.30;99.90
18384;DHT22;9318;48.644;9.456;2023-12-04T08:43:11;-2.30;99.90
18384;DHT22;9318;48.644;9.456;2023-12-04T08:45:38;-2.40;99.90
18384;DHT22;9318;48.644;9.456;2023-12-04T08:48:05;-2.40;99.90
18384;DHT22;9318;48.644;9.456;2023-12-04T08:50:32;-2.30;99.90
18384;DHT22;9318;48.644;9.456;2023-12-04T08:52:58;-2.30;99.90
18384;DHT22;9318;48.644;9.456;2023-12-04T08:55:25;-2.20;99.90
18384;DHT22;9318;48.644;9.456;2023-12-04T08:57:52;-2.20;99.90
18384;DHT22;9318;48.644;9.456;2023-12-04T09:00:21;-2.00;99.90
18384;DHT22;9318;48.644;9.456;2023-12-04T09:02:48;-2.00;99.90
18384;DHT22;9318;48.644;9.456;2023-12-04T09:05:15;-1.90;99.90
18384;DHT22;9318;48.644;9.456;2023-12-04T09:07:41;-1.80;99.90
18384;DHT22;9318;48.644;9.456;2023-12-04T09:10:08;-1.60;99.90
18384;DHT22;9318;48.644;9.456;2023-12-04T09:12:35;-1.50;99.90
18384;DHT22;9318;48.644;9.456;2023-12-04T09:15:04;-1.40;99.90
18384;DHT22;9318;48.644;9.456;2023-12-04T09:17:32;-1.30;99.90
18384;DHT22;9318;48.644;9.456;2023-12-04T09:19:59;-1.30;99.90
18384;DHT22;9318;48.644;9.456;2023-12-04T09:22:26;-1.30;99.90
18384;DHT22;9318;48.644;9.456;2023-12-04T09:24:53;-1.30;99.90
18384;DHT22;9318;48.644;9.456;2023-12-04T09:27:20;-1.30;99.90
18384;DHT22;9318;48.644;9.456;2023-12-04T09:29:47;-1.30;99.90
18384;DHT22;9318;48.644;9.456;2023-12-04T09:32:13;-1.20;99.90
18384;DHT22;9318;48.644;9.456;2023-12-04T09:34:41;-1.20;99.90
18384;DHT22;9318;48.644;9.456;2023-12-04T09:37:08;-1.30;99.90
18384;DHT22;9318;48.644;9.456;2023-12-04T09:39:35;-1.30;99.90
18384;DHT22;9318;48.644;9.456;2023-12-04T09:42:02;-1.30;99.90
18384;DHT22;9318;48.644;9.456;2023-12-04T09:44:30;-1.30;99.90
18384;DHT22;9318;48.644;9.456;2023-12-04T09:46:57;-1.20;99.90
18384;DHT22;9318;48.644;9.456;2023-12-04T09:49:26;-1.20;99.90
18384;DHT22;9318;48.644;9.456;2023-12-04T09:51:57;-1.20;99.90
18384;DHT22;9318;48.644;9.456;2023-12-04T09:54:24;-1.10;99.90
18384;DHT22;9318;48.644;9.456;2023-12-04T09:56:52;-1.00;99.90
18384;DHT22;9318;48.644;9.456;2023-12-04T09:59:20;-1.00;99.90
18384;DHT22;9318;48.644;9.456;2023-12-04T10:01:49;-1.10;99.90
18384;DHT22;9318;48.644;9.456;2023-12-04T10:04:17;-1.00;99.90
18384;DHT22;9318;48.644;9.456;2023-12-04T10:06:45;-0.90;99.90
18384;DHT22;9318;48.644;9.456;2023-12-04T10:09:13;-1.00;99.90
18384;DHT22;9318;48.644;9.456;2023-12-04T10:11:41;-1.00;99.90
18384;DHT22;9318;48.644;9.456;2023-12-04T10:14:14;-1.00;99.90
18384;DHT22;9318;48.644;9.456;2023-12-04T10:16:41;-0.90;99.90
18384;DHT22;9318;48.644;9.456;2023-12-04T10:19:15;-1.00;99.90
18384;DHT22;9318;48.644;9.456;2023-12-04T10:21:43;-0.90;99.90
18384;DHT22;9318;48.644;9.456;2023-12-04T10:24:10;-0.90;99.90
18384;DHT22;9318;48.644;9.456;2023-12-04T10:26:49;-0.90;99.90
18384;DHT22;9318;48.644;9.456;2023-12-04T10:29:16;-0.80;99.90
18384;DHT22;9318;48.644;9.456;2023-12-04T10:31:43;-0.80;99.90
18384;DHT22;9318;48.644;9.456;2023-12-04T10:34:10;-0.60;99.90
18384;DHT22;9318;48.644;9.456;2023-12-04T10:36:37;-0.60;99.90
18384;DHT22;9318;48.644;9.456;2023-12-04T10:39:04;-0.50;99.90
18384;DHT22;9318;48.644;9.456;2023-12-04T10:41:31;-0.40;99.90
18384;DHT22;9318;48.644;9.456;2023-12-04T10:44:00;-0.40;99.90
18384;DHT22;9318;48.644;9.456;2023-12-04T10:46:27;-0.30;99.90
18384;DHT22;9318;48.644;9.456;2023-12-04T10:48:57;-0.30;99.90
18384;DHT22;9318;48.644;9.456;2023-12-04T10:51:25;-0.30;99.90
18384;DHT22;9318;48.644;9.456;2023-12-04T10:53:53;-0.30;99.90
18384;DHT22;9318;48.644;9.456;2023-12-04T10:56:30;-0.30;99.90
18384;DHT22;9318;48.644;9.456;2023-12-04T10:59:00;-0.40;99.90
18384;DHT22;9318;48.644;9.456;2023-12-04T11:01:29;-0.40;99.90
18384;DHT22;9318;48.644;9.456;2023-12-04T11:03:59;-0.30;99.90
18384;DHT22;9318;48.644;9.456;2023-12-04T11:06:33;-0.30;99.90
18384;DHT22;9318;48.644;9.456;2023-12-04T11:09:03;-0.40;99.90
18384;DHT22;9318;48.644;9.456;2023-12-04T11:11:35;-0.30;99.90
18384;DHT22;9318;48.644;9.456;2023-12-04T11:14:05;-0.40;99.90
18384;DHT22;9318;48.644;9.456;2023-12-04T11:16:37;-0.30;99.90
18384;DHT22;9318;48.644;9.456;2023-12-04T11:19:13;-0.30;99.90
18384;DHT22;9318;48.644;9.456;2023-12-04T11:21:43;-0.30;99.90
18384;DHT22;9318;48.644;9.456;2023-12-04T11:24:12;-0.20;99.90
18384;DHT22;9318;48.644;9.456;2023-12-04T11:26:39;-0.10;99.90
18384;DHT22;9318;48.644;9.456;2023-12-04T11:29:10;0.10;99.90
18384;DHT22;9318;48.644;9.456;2023-12-04T11:31:38;0.20;99.90
18384;DHT22;9318;48.644;9.456;2023-12-04T11:34:07;0.30;99.90
18384;DHT22;9318;48.644;9.456;2023-12-04T11:36:35;0.30;99.90
18384;DHT22;9318;48.644;9.456;2023-12-04T11:39:02;0.30;99.90
18384;DHT22;9318;48.644;9.456;2023-12-04T11:41:31;0.20;99.90
18384;DHT22;9318;48.644;9.456;2023-12-04T11:43:57;0.10;99.90
18384;DHT22;9318;48.644;9.456;2023-12-04T11:46:27;0.00;99.90
18384;DHT22;9318;48.644;9.456;2023-12-04T11:48:57;-0.10;99.90
18384;DHT22;9318;48.644;9.456;2023-12-04T11:51:45;-0.10;99.90
18384;DHT22;9318;48.644;9.456;2023-12-04T11:54:17;-0.20;99.90
18384;DHT22;9318;48.644;9.456;2023-12-04T11:56:56;-0.30;99.90
18384;DHT22;9318;48.644;9.456;2023-12-04T11:59:24;-0.40;99.90
18384;DHT22;9318;48.644;9.456;2023-12-04T12:01:54;-0.30;99.90
18384;DHT22;9318;48.644;9.456;2023-12-04T12:04:21;-0.20;99.90
18384;DHT22;9318;48.644;9.456;2023-12-04T12:06:48;-0.20;99.90
18384;DHT22;9318;48.644;9.456;2023-12-04T12:09:16;-0.10;99.90
18384;DHT22;9318;48.644;9.456;2023-12-04T12:11:43;-0.10;99.90
18384;DHT22;9318;48.644;9.456;2023-12-04T12:14:10;0.00;99.90
18384;DHT22;9318;48.644;9.456;2023-12-04T12:16:37;0.00;99.90
18384;DHT22;9318;48.644;9.456;2023-12-04T12:19:05;0.00;99.90
18384;DHT22;9318;48.644;9.456;2023-12-04T12:21:32;0.00;99.90
18384;DHT22;9318;48.644;9.456;2023-12-04T12:24:00;-0.10;99.90
18384;DHT22;9318;48.644;9.456;2023-12-04T12:26:28;0.00;99.90
18384;DHT22;9318;48.644;9.456;2023-12-04T12:28:55;0.00;99.90
18384;DHT22;9318;48.644;9.456;2023-12-04T12:31:22;0.00;99.90
18384;DHT22;9318;48.644;9.456;2023-12-04T12:33:49;0.00;99.90
18384;DHT22;9318;48.644;9.456;2023-12-04T12:36:17;0.00;99.90
18384;DHT22;9318;48.644;9.456;2023-12-04T12:38:44;0.00;99.90
18384;DHT22;9318;48.644;9.456;2023-12-04T12:41:15;0.10;99.90
18384;DHT22;9318;48.644;9.456;2023-12-04T12:43:42;0.10;99.90
18384;DHT22;9318;48.644;9.456;2023-12-04T12:46:10;0.10;99.90
18384;DHT22;9318;48.644;9.456;2023-12-04T12:48:36;0.20;99.90
18384;DHT22;9318;48.644;9.456;2023-12-04T12:51:04;0.00;99.90
18384;DHT22;9318;48.644;9.456;2023-12-04T12:53:33;0.00;99.90
18384;DHT22;9318;48.644;9.456;2023-12-04T12:56:00;0.00;99.90
18384;DHT22;9318;48.644;9.456;2023-12-04T12:58:29;0.00;99.90
18384;DHT22;9318;48.644;9.456;2023-12-04T13:00:56;-0.10;99.90
18384;DHT22;9318;48.644;9.456;2023-12-04T13:03:23;-0.10;99.90
18384;DHT22;9318;48.644;9.456;2023-12-04T13:05:50;-0.30;99.90
18384;DHT22;9318;48.644;9.456;2023-12-04T13:08:17;-0.30;99.90
18384;DHT22;9318;48.644;9.456;2023-12-04T13:10:45;-0.30;99.90
18384;DHT22;9318;48.644;9.456;2023-12-04T13:13:12;-0.30;99.90
18384;DHT22;9318;48.644;9.456;2023-12-04T13:15:38;-0.20;99.90
18384;DHT22;9318;48.644;9.456;2023-12-04T13:18:07;-0.10;99.90
18384;DHT22;9318;48.644;9.456;2023-12-04T13:20:33;-0.10;99.90
18384;DHT22;9318;48.644;9.456;2023-12-04T13:23:01;-0.10;99.90
18384;DHT22;9318;48.644;9.456;2023-12-04T13:25:27;-0.10;99.90
18384;DHT22;9318;48.644;9.456;2023-12-04T13:27:55;-0.10;99.90
18384;DHT22;9318;48.644;9.456;2023-12-04T13:30:22;-0.10;99.90
18384;DHT22;9318;48.644;9.456;2023-12-04T13:32:49;-0.10;99.90
18384;DHT22;9318;48.644;9.456;2023-12-04T13:35:16;0.00;99.90
18384;DHT22;9318;48.644;9.456;2023-12-04T13:37:44;0.00;99.90
18384;DHT22;9318;48.644;9.456;2023-12-04T13:40:11;0.00;99.90
18384;DHT22;9318;48.644;9.456;2023-12-04T13:42:41;0.00;99.90
18384;DHT22;9318;48.644;9.456;2023-12-04T13:45:27;0.00;99.90
18384;DHT22;9318;48.644;9.456;2023-12-04T13:47:53;-0.10;99.90
18384;DHT22;9318;48.644;9.456;2023-12-04T13:50:20;0.00;99.90
18384;DHT22;9318;48.644;9.456;2023-12-04T13:52:47;0.00;99.90
18384;DHT22;9318;48.644;9.456;2023-12-04T13:55:20;0.10;99.90
18384;DHT22;9318;48.644;9.456;2023-12-04T13:58:01;0.10;99.90
18384;DHT22;9318;48.644;9.456;2023-12-04T14:00:37;0.10;99.90
18384;DHT22;9318;48.644;9.456;2023-12-04T14:03:03;0.10;99.90
18384;DHT22;9318;48.644;9.456;2023-12-04T14:05:31;0.20;99.90
18384;DHT22;9318;48.644;9.456;2023-12-04T14:07:58;0.20;99.90
18384;DHT22;9318;48.644;9.456;2023-12-04T14:10:25;0.20;99.90
18384;DHT22;9318;48.644;9.456;2023-12-04T14:12:52;0.20;99.90
18384;DHT22;9318;48.644;9.456;2023-12-04T14:15:19;0.20;99.90
18384;DHT22;9318;48.644;9.456;2023-12-04T14:17:47;0.20;99.90
18384;DHT22;9318;48.644;9.456;2023-12-04T14:20:14;0.30;99.90
18384;DHT22;9318;48.644;9.456;2023-12-04T14:22:45;0.30;99.90
18384;DHT22;9318;48.644;9.456;2023-12-04T14:25:12;0.30;99.90
18384;DHT22;9318;48.644;9.456;2023-12-04T14:27:38;0.30;99.90
18384;DHT22;9318;48.644;9.456;2023-12-04T14:30:07;0.30;99.90
18384;DHT22;9318;48.644;9.456;2023-12-04T14:32:35;0.40;99.90
18384;DHT22;9318;48.644;9.456;2023-12-04T14:35:04;0.40;99.90
18384;DHT22;9318;48.644;9.456;2023-12-04T14:37:32;0.40;99.90
18384;DHT22;9318;48.644;9.456;2023-12-04T14:39:59;0.40;99.90
18384;DHT22;9318;48.644;9.456;2023-12-04T14:42:26;0.40;99.90
18384;DHT22;9318;48.644;9.456;2023-12-04T14:44:53;0.50;99.90
18384;DHT22;9318;48.644;9.456;2023-12-04T14:47:20;0.50;99.90
18384;DHT22;9318;48.644;9.456;2023-12-04T14:49:47;0.50;99.90
18384;DHT22;9318;48.644;9.456;2023-12-04T14:52:20;0.60;99.90
18384;DHT22;9318;48.644;9.456;2023-12-04T14:54:48;0.60;99.90
18384;DHT22;9318;48.644;9.456;2023-12-04T14:57:38;0.60;99.90
18384;DHT22;9318;48.644;9.456;2023-12-04T15:00:21;0.50;99.90
18384;DHT22;9318;48.644;9.456;2023-12-04T15:03:06;0.40;99.90
18384;DHT22;9318;48.644;9.456;2023-12-04T15:06:01;0.30;99.90
18384;DHT22;9318;48.644;9.456;2023-12-04T15:08:55;0.30;99.90
18384;DHT22;9318;48.644;9.456;2023-12-04T15:11:44;0.30;99.90
18384;DHT22;9318;48.644;9.456;2023-12-04T15:14:40;0.30;99.90
18384;DHT22;9318;48.644;9.456;2023-12-04T15:17:13;0.30;99.90
18384;DHT22;9318;48.644;9.456;2023-12-04T15:19:54;0.30;99.90
18384;DHT22;9318;48.644;9.456;2023-12-04T15:22:42;0.30;99.90
18384;DHT22;9318;48.644;9.456;2023-12-04T15:25:11;0.30;99.90
18384;DHT22;9318;48.644;9.456;2023-12-04T15:27:39;0.40;99.90
18384;DHT22;9318;48.644;9.456;2023-12-04T15:30:05;0.40;99.90
18384;DHT22;9318;48.644;9.456;2023-12-04T15:32:34;0.40;99.90
18384;DHT22;9318;48.644;9.456;2023-12-04T15:34:59;0.40;99.90
18384;DHT22;9318;48.644;9.456;2023-12-04T15:37:26;0.50;99.90
18384;DHT22;9318;48.644;9.456;2023-12-04T15:39:52;0.50;99.90
18384;DHT22;9318;48.644;9.456;2023-12-04T15:42:20;0.60;99.90
18384;DHT22;9318;48.644;9.456;2023-12-04T15:44:46;0.60;99.90
18384;DHT22;9318;48.644;9.456;2023-12-04T15:47:13;0.60;99.90
18384;DHT22;9318;48.644;9.456;2023-12-04T15:49:39;0.70;99.90
18384;DHT22;9318;48.644;9.456;2023-12-04T15:52:05;0.70;99.90
18384;DHT22;9318;48.644;9.456;2023-12-04T15:54:31;0.60;99.90